Naples, FL (34117)

7:26 PM EDT on April 24, 2017 (GMT -0400)
MSGGEW | | Change Station

Elev 6 ft 26.15 °N, 81.58 °W | Updated 16 minutes ago

Partly Cloudy
Partly Cloudy
75.0 °F
Feels Like 77 °F
N
9.0
Wind Variable Wind from WNW
Gusts 20.0 mph

Today
High -- | Low -- °F
--% Chance of Precip.
Yesterday
High -- | Low -- °F
Precip. -- in
Pressure 29.77 in
Visibility 10.0 miles
Clouds Scattered Clouds 2500 ft
Mostly Cloudy 3000 ft
Mostly Cloudy 4100 ft
Heat Index 77 °F
Dew Point 63 °F
Humidity 66%
Rainfall 0.00 in
Snow Depth Not available.
6:54 AM 7:54 PM
Waning Crescent, 3% visible
METAR KAPF 242253Z 30014G19KT 10SM SCT025 BKN030 BKN041 24/18 A2977 RMK AO2 SLP080 T02440183 $
Pressure 29.77 in
Visibility 10.0 miles
Clouds Scattered Clouds 2500 ft
Mostly Cloudy 3000 ft
Mostly Cloudy 4100 ft
Heat Index 77 °F
Dew Point 63 °F
Humidity 66%
Rainfall 0.00 in
Snow Depth Not available.
6:54 AM 7:54 PM
Waning Crescent, 3% visible
METAR KAPF 242253Z 30014G19KT 10SM SCT025 BKN030 BKN041 24/18 A2977 RMK AO2 SLP080 T02440183 $

Get Severe Weather Alerts

Thanks for signing up!

Be on the lookout for a verification email in your inbox.

You'll start receiving the daily forecast at 8 AM.

×

10-Day Weather Forecast

Almanac

Astronomy

Apr. 24, 2017 Rise Set
Actual Time
Civil Twilight
Nautical Twilight
Astronomical Twilight
Moon
Length of Visible Light
Length of Day
Tomorrow will be .
, % of the Moon is Illuminated

Today's Extremes

State Highs State Lows

Community

WunderPhotos

WunderBlog® & News

Nearby

Air Quality

  Air Quality AQ Index Pollutant
Not available.

Snow Depth

Station Depth Elevation

Earthquake Activity

City Distance Mag. Time & Date
Minimum magnitude displayed is 2.5.

Coastal Water Temperatures

Place Temperature

Stations

Nearby Weather Stations

Station Location Temp. Windchill Dew Point Humidity Wind Precip. Elev Updated Type
                   

Watches & Warnings

There are currently no watches in effect.